createdAt,value
2019-04-11T00:01:46.900Z,56.36
2019-04-11T00:05:23.685Z,55.48
2019-04-11T00:07:58.052Z,57.02
2019-04-11T00:10:39.573Z,56.00
2019-04-11T00:13:24.389Z,56.17
2019-04-11T00:15:53.539Z,55.84
2019-04-11T00:18:25.328Z,55.56
2019-04-11T00:21:42.833Z,55.25
2019-04-11T00:24:20.954Z,55.10
2019-04-11T00:26:54.896Z,55.86
2019-04-11T00:29:28.469Z,55.73
2019-04-11T00:32:01.117Z,56.09
2019-04-11T00:34:37.346Z,55.44
2019-04-11T00:37:08.672Z,54.81
2019-04-11T00:39:40.654Z,56.98
2019-04-11T00:42:18.711Z,56.99
2019-04-11T00:44:51.386Z,55.54
2019-04-11T00:47:25.470Z,55.58
2019-04-11T00:49:56.924Z,56.38
2019-04-11T00:52:49.743Z,56.66
2019-04-11T00:55:23.838Z,56.01
2019-04-11T00:57:59.237Z,55.69
2019-04-11T01:00:33.684Z,55.42
2019-04-11T01:03:20.114Z,56.34
2019-04-11T01:05:51.726Z,56.16
2019-04-11T01:08:35.727Z,56.36
2019-04-11T01:11:13.952Z,56.23
2019-04-11T01:13:55.278Z,56.47
2019-04-11T01:16:43.042Z,55.64
2019-04-11T01:19:40.612Z,56.30
2019-04-11T01:22:14.228Z,55.56
2019-04-11T01:24:46.526Z,56.91
2019-04-11T01:27:34.100Z,56.65
2019-04-11T01:30:08.190Z,55.88
2019-04-11T01:32:40.735Z,56.31
2019-04-11T01:35:13.360Z,56.32
2019-04-11T01:37:46.129Z,57.74
2019-04-11T01:41:10.037Z,58.07
2019-04-11T01:44:13.127Z,57.53
2019-04-11T01:46:49.353Z,58.23
2019-04-11T01:49:48.808Z,56.93
2019-04-11T01:52:20.329Z,57.60
2019-04-11T01:54:52.852Z,57.68
2019-04-11T01:57:29.717Z,57.55
2019-04-11T02:00:12.484Z,57.81
2019-04-11T02:02:50.858Z,58.44
2019-04-11T02:05:29.397Z,58.55
2019-04-11T02:08:00.856Z,59.16
2019-04-11T02:10:32.833Z,60.74
2019-04-11T02:13:03.851Z,60.77
2019-04-11T02:15:36.654Z,60.79
2019-04-11T02:18:07.712Z,60.55
2019-04-11T02:20:39.085Z,60.77
2019-04-11T02:23:15.106Z,60.76
2019-04-11T02:25:54.899Z,61.11
2019-04-11T02:28:25.688Z,60.88
2019-04-11T02:30:57.819Z,62.00
2019-04-11T02:36:45.085Z,60.95
2019-04-11T02:39:19.589Z,61.33
2019-04-11T02:41:50.784Z,61.55
2019-04-11T02:44:45.494Z,61.70
2019-04-11T02:47:01.754Z,61.72
2019-04-11T02:49:28.014Z,62.54
2019-04-11T02:52:00.637Z,64.13
2019-04-11T02:54:33.533Z,63.61
2019-04-11T02:57:05.894Z,64.32
2019-04-11T02:59:38.766Z,63.25
2019-04-11T03:02:13.009Z,63.86
2019-04-11T03:04:43.924Z,63.55
2019-04-11T03:07:24.609Z,65.35
2019-04-11T03:09:56.504Z,65.38
2019-04-11T03:12:29.584Z,64.87
2019-04-11T03:15:16.688Z,65.99
2019-04-11T03:17:38.481Z,66.07
2019-04-11T03:20:20.933Z,66.93
2019-04-11T03:22:42.524Z,67.38
2019-04-11T03:25:22.543Z,65.43
2019-04-11T03:27:54.182Z,65.88
2019-04-11T03:30:42.130Z,66.68
2019-04-11T03:33:58.247Z,67.99
2019-04-11T03:36:28.990Z,67.16
2019-04-11T03:38:33.119Z,68.11
2019-04-11T03:40:59.594Z,67.52
2019-04-11T03:43:26.145Z,67.73
2019-04-11T03:46:11.898Z,66.38
2019-04-11T03:48:39.828Z,67.45
2019-04-11T03:50:57.414Z,68.27
2019-04-11T03:53:29.929Z,69.07
2019-04-11T03:56:03.642Z,69.60
2019-04-11T03:58:34.942Z,67.15
2019-04-11T04:01:10.942Z,67.71
2019-04-11T04:03:48.863Z,68.94
2019-04-11T04:06:19.138Z,68.81
2019-04-11T04:08:50.880Z,69.67
2019-04-11T04:11:27.116Z,69.94
2019-04-11T04:14:19.936Z,70.46
2019-04-11T04:17:19.158Z,68.19
2019-04-11T04:20:08.825Z,69.36
2019-04-11T04:22:49.703Z,70.01
2019-04-11T04:25:21.489Z,70.90
2019-04-11T04:27:54.671Z,72.20
2019-04-11T04:30:27.667Z,71.91
2019-04-11T04:33:20.184Z,72.32
2019-04-11T04:35:52.443Z,72.31
2019-04-11T04:38:31.574Z,73.80
2019-04-11T04:41:16.934Z,73.55
2019-04-11T04:43:38.830Z,72.55
2019-04-11T04:46:38.146Z,72.22
2019-04-11T04:48:51.559Z,74.64
2019-04-11T04:51:24.602Z,74.38
2019-04-11T04:53:57.863Z,74.44
2019-04-11T04:56:41.951Z,74.71
2019-04-11T04:59:14.612Z,75.47
2019-04-11T05:17:36.392Z,73.21
2019-04-11T05:23:21.404Z,70.24
2019-04-11T05:26:21.573Z,70.02
2019-04-11T05:29:19.615Z,70.29
2019-04-11T05:31:59.403Z,68.31
2019-04-11T05:34:32.789Z,67.46
2019-04-11T05:40:57.084Z,68.48
2019-04-11T05:47:14.532Z,66.39
2019-04-11T05:50:09.215Z,66.44
2019-04-11T05:52:50.382Z,66.97
2019-04-11T05:55:55.279Z,66.43
2019-04-11T05:59:24.449Z,65.90
2019-04-11T06:02:07.633Z,64.25
2019-04-11T06:04:50.109Z,65.36
2019-04-11T06:08:21.118Z,65.74
2019-04-11T06:11:23.676Z,65.08
2019-04-11T06:14:13.192Z,64.85
2019-04-11T06:16:57.603Z,64.07
2019-04-11T06:20:02.126Z,65.32
2019-04-11T06:22:42.191Z,63.86
2019-04-11T06:25:39.068Z,63.55
2019-04-11T06:28:28.964Z,62.49
2019-04-11T06:31:24.541Z,62.17
2019-04-11T06:34:07.195Z,60.22
2019-04-11T06:37:12.085Z,61.25
2019-04-11T06:40:07.844Z,60.43
2019-04-11T06:42:57.586Z,60.98
2019-04-11T06:45:59.127Z,58.94
2019-04-11T06:48:54.483Z,58.76
2019-04-11T06:51:32.341Z,58.96
2019-04-11T06:54:21.778Z,59.76
2019-04-11T06:56:53.817Z,60.02
2019-04-11T06:59:28.387Z,58.52
2019-04-11T07:02:11.578Z,57.34
2019-04-11T07:04:42.166Z,58.43
2019-04-11T07:07:13.408Z,57.04
2019-04-11T07:09:49.219Z,56.68
2019-04-11T07:12:38.575Z,57.98
2019-04-11T07:15:14.437Z,57.09
2019-04-11T07:18:06.073Z,57.04
2019-04-11T07:21:04.027Z,56.53
2019-04-11T07:23:53.411Z,55.83
2019-04-11T07:26:48.677Z,55.95
2019-04-11T07:29:37.915Z,55.57
2019-04-11T07:32:17.942Z,54.89
2019-04-11T07:35:06.383Z,54.86
2019-04-11T07:37:49.163Z,54.34
2019-04-11T07:40:39.469Z,52.68
2019-04-11T07:43:17.591Z,54.38
2019-04-11T07:46:10.170Z,52.32
2019-04-11T07:48:44.626Z,52.56
2019-04-11T07:51:40.873Z,51.31
2019-04-11T07:54:22.828Z,50.81
2019-04-11T07:56:55.917Z,49.53
2019-04-11T07:59:46.810Z,47.70
2019-04-11T08:02:35.514Z,46.57
2019-04-11T08:05:30.229Z,47.51
2019-04-11T08:08:26.808Z,46.14
2019-04-11T08:11:06.779Z,43.85
2019-04-11T08:13:56.286Z,44.97
2019-04-11T08:16:53.238Z,43.92
2019-04-11T08:19:42.769Z,43.42
2019-04-11T08:22:35.857Z,44.31
2019-04-11T08:25:25.118Z,42.09
2019-04-11T08:28:01.313Z,41.25
2019-04-11T08:30:39.926Z,39.13
2019-04-11T08:33:10.830Z,40.34
2019-04-11T08:36:02.000Z,40.24
2019-04-11T08:38:34.649Z,38.02
2019-04-11T08:41:27.509Z,36.41
2019-04-11T08:43:59.459Z,38.65
2019-04-11T08:47:41.938Z,36.87
2019-04-11T08:50:02.508Z,35.40
2019-04-11T08:53:37.203Z,35.07
2019-04-11T08:56:24.794Z,35.07
2019-04-11T08:59:47.215Z,31.61
2019-04-11T09:02:22.190Z,33.09
2019-04-11T09:05:19.657Z,31.58
2019-04-11T09:08:20.415Z,31.98
2019-04-11T09:11:15.096Z,32.25
2019-04-11T09:14:12.304Z,32.63
2019-04-11T09:17:05.905Z,32.00
2019-04-11T09:19:49.336Z,31.24
2019-04-11T09:22:33.109Z,31.53
2019-04-11T09:25:37.606Z,32.21
2019-04-11T09:28:19.698Z,30.97
2019-04-11T09:31:25.463Z,30.62
2019-04-11T09:34:18.186Z,33.05
2019-04-11T09:37:06.238Z,32.35
2019-04-11T09:40:24.288Z,31.09
2019-04-11T09:43:11.514Z,31.40
2019-04-11T09:46:10.378Z,34.15
2019-04-11T09:48:54.546Z,33.52
2019-04-11T09:51:38.067Z,32.56
2019-04-11T09:54:24.002Z,32.59
2019-04-11T09:57:17.069Z,32.29
2019-04-11T10:00:12.397Z,31.40
2019-04-11T10:02:54.335Z,32.87
2019-04-11T10:05:36.833Z,32.85
2019-04-11T10:08:33.134Z,31.76
2019-04-11T10:11:34.469Z,31.08
2019-04-11T10:14:09.313Z,31.73
2019-04-11T10:16:58.168Z,31.02
2019-04-11T10:19:58.305Z,31.29
2019-04-11T10:22:49.023Z,30.00
2019-04-11T10:25:30.251Z,30.84
2019-04-11T10:28:29.878Z,33.47
2019-04-11T10:31:12.653Z,32.61
2019-04-11T10:34:14.733Z,34.99
2019-04-11T10:37:09.741Z,34.72
2019-04-11T10:40:00.122Z,37.35
2019-04-11T10:42:32.725Z,35.12
2019-04-11T10:46:09.239Z,35.66
2019-04-11T10:49:05.373Z,35.29
2019-04-11T10:52:08.470Z,34.82
2019-04-11T10:54:41.122Z,35.85
2019-04-11T10:57:44.650Z,39.04
2019-04-11T11:00:37.610Z,38.43
2019-04-11T11:03:24.426Z,39.09
2019-04-11T11:09:37.798Z,39.14
2019-04-11T11:12:51.863Z,38.63
2019-04-11T11:15:33.972Z,39.43
2019-04-11T11:21:07.445Z,39.67
2019-04-11T11:24:07.170Z,39.55
2019-04-11T11:26:39.119Z,40.85
2019-04-11T11:29:37.140Z,39.00
2019-04-11T11:32:13.250Z,39.49
2019-04-11T11:34:53.384Z,39.03
2019-04-11T11:37:41.877Z,39.86
2019-04-11T11:40:50.085Z,39.46
2019-04-11T11:43:25.942Z,39.74
2019-04-11T11:46:16.116Z,40.30
2019-04-11T11:48:54.066Z,39.22
2019-04-11T11:52:24.893Z,39.25
2019-04-11T11:54:59.844Z,39.85
2019-04-11T11:57:44.854Z,38.25
2019-04-11T12:00:33.379Z,38.52
2019-04-11T12:03:35.263Z,37.78
2019-04-11T12:06:59.757Z,38.45
2019-04-11T12:09:42.513Z,38.86
2019-04-11T12:12:21.911Z,38.55
2019-04-11T12:15:22.469Z,38.57
2019-04-11T12:18:18.071Z,38.05
2019-04-11T12:20:56.277Z,40.04
2019-04-11T12:23:48.712Z,41.37
2019-04-11T12:26:12.545Z,40.39
2019-04-11T12:29:08.303Z,39.84
2019-04-11T12:31:40.326Z,39.94
2019-04-11T12:34:30.296Z,38.08
2019-04-11T12:37:06.191Z,38.38
2019-04-11T12:39:59.137Z,37.96
2019-04-11T12:42:33.583Z,39.06
2019-04-11T12:45:44.281Z,38.12
2019-04-11T12:48:15.623Z,37.44
2019-04-11T12:51:03.974Z,37.40
2019-04-11T12:53:34.680Z,37.07
2019-04-11T12:56:24.173Z,36.74
2019-04-11T12:59:19.761Z,35.78
2019-04-11T13:02:08.150Z,36.95
2019-04-11T13:04:45.019Z,36.52
2019-04-11T13:07:34.632Z,37.07
2019-04-11T13:10:24.171Z,37.67
2019-04-11T13:13:20.470Z,37.41
2019-04-11T13:16:12.212Z,36.92
2019-04-11T13:19:00.345Z,36.86
2019-04-11T13:21:56.124Z,35.02
2019-04-11T13:24:48.634Z,33.72
2019-04-11T13:27:25.168Z,33.78
2019-04-11T13:30:18.179Z,33.26
2019-04-11T13:33:03.736Z,34.77
2019-04-11T13:36:02.882Z,35.96
2019-04-11T13:38:41.936Z,35.35
2019-04-11T13:41:44.033Z,34.62
2019-04-11T13:44:19.918Z,35.80
2019-04-11T13:47:20.442Z,35.12
2019-04-11T13:49:53.582Z,33.19
2019-04-11T13:52:46.551Z,31.10
2019-04-11T13:55:28.272Z,28.58
2019-04-11T13:58:18.891Z,28.12
2019-04-11T14:00:51.467Z,27.41
2019-04-11T14:03:44.142Z,26.48
2019-04-11T14:06:25.640Z,24.70
2019-04-11T14:09:22.067Z,23.04
2019-04-11T14:11:54.538Z,21.99
2019-04-11T14:15:05.988Z,20.79
2019-04-11T14:18:12.208Z,21.96
2019-04-11T14:20:51.934Z,21.75
2019-04-11T14:23:45.281Z,23.62
2019-04-11T14:26:36.348Z,26.28
2019-04-11T14:29:26.620Z,27.78
2019-04-11T14:32:34.535Z,27.53
2019-04-11T14:35:39.735Z,28.53
2019-04-11T14:38:12.666Z,30.37
2019-04-11T14:41:05.170Z,25.46
2019-04-11T14:43:38.876Z,22.45
2019-04-11T14:46:28.655Z,25.25
2019-04-11T14:49:10.431Z,26.50
2019-04-11T14:51:58.703Z,26.73
2019-04-11T14:54:49.856Z,26.42
2019-04-11T14:57:54.620Z,26.11
2019-04-11T15:00:36.615Z,24.03
2019-04-11T15:03:35.313Z,23.60
2019-04-11T15:06:34.660Z,23.67
2019-04-11T15:09:31.947Z,22.02
2019-04-11T15:12:23.184Z,22.18
2019-04-11T15:15:15.869Z,21.05
2019-04-11T15:17:47.161Z,21.39
2019-04-11T15:20:42.376Z,22.52
2019-04-11T15:23:24.706Z,24.59
2019-04-11T15:26:14.446Z,27.76
2019-04-11T15:29:07.318Z,29.05
2019-04-11T15:31:55.764Z,30.36
2019-04-11T15:34:38.547Z,29.85
2019-04-11T15:37:28.642Z,27.63
2019-04-11T15:40:15.011Z,29.74
2019-04-11T15:42:57.379Z,31.75
2019-04-11T15:45:53.503Z,33.33
2019-04-11T15:49:49.153Z,33.80
2019-04-11T15:52:30.507Z,30.13
2019-04-11T15:55:24.533Z,23.72
2019-04-11T15:57:57.393Z,23.73
2019-04-11T16:01:04.054Z,24.21
2019-04-11T16:03:37.872Z,26.51
2019-04-11T16:06:26.245Z,28.72
2019-04-11T16:09:00.556Z,28.19
2019-04-11T16:11:53.843Z,28.81
2019-04-11T16:14:36.142Z,29.28
2019-04-11T16:17:35.175Z,30.34
2019-04-11T16:20:29.439Z,29.50
2019-04-11T16:23:27.044Z,30.58
2019-04-11T16:26:09.582Z,31.78
2019-04-11T16:29:12.993Z,33.57
2019-04-11T16:31:52.897Z,35.09
2019-04-11T16:34:51.561Z,35.35
2019-04-11T16:37:21.571Z,36.62
2019-04-11T16:40:11.131Z,36.49
2019-04-11T16:42:44.504Z,36.88
2019-04-11T16:45:37.837Z,37.48
2019-04-11T16:49:01.898Z,36.80
2019-04-11T16:51:42.303Z,36.96
2019-04-11T16:54:15.626Z,37.92
2019-04-11T16:56:46.830Z,38.96
2019-04-11T16:59:17.840Z,38.87
2019-04-11T17:01:53.416Z,38.37
2019-04-11T17:04:25.814Z,39.56
2019-04-11T17:07:26.633Z,39.44
2019-04-11T17:09:57.942Z,39.70
2019-04-11T17:12:57.978Z,39.82
2019-04-11T17:18:45.526Z,38.51
2019-04-11T17:21:18.747Z,38.86
2019-04-11T17:23:53.773Z,39.51
2019-04-11T17:27:47.080Z,39.46
2019-04-11T17:30:38.626Z,39.96
2019-04-11T17:33:29.257Z,38.89
2019-04-11T17:36:06.179Z,39.11
2019-04-11T17:38:39.122Z,39.48
2019-04-11T17:41:11.984Z,39.62
2019-04-11T17:43:46.706Z,39.76
2019-04-11T17:46:16.460Z,40.81
2019-04-11T17:48:50.246Z,40.34
2019-04-11T17:51:20.330Z,40.92
2019-04-11T17:53:55.552Z,42.54
2019-04-11T17:56:41.209Z,41.76
2019-04-11T18:02:36.499Z,42.44
2019-04-11T18:05:07.996Z,41.91
2019-04-11T18:07:41.361Z,40.84
2019-04-11T18:10:12.860Z,41.73
2019-04-11T18:12:43.909Z,41.48
2019-04-11T18:15:15.608Z,41.89
2019-04-11T18:17:46.843Z,42.03
2019-04-11T18:20:18.657Z,43.07
2019-04-11T18:26:29.032Z,41.96
2019-04-11T18:29:00.041Z,41.76
2019-04-11T18:31:30.868Z,41.76
2019-04-11T18:34:03.210Z,41.76
2019-04-11T18:36:37.240Z,42.46
2019-04-11T18:39:08.604Z,43.10
2019-04-11T18:41:39.524Z,43.82
2019-04-11T18:44:10.901Z,44.01
2019-04-11T18:46:42.697Z,42.64
2019-04-11T18:49:14.060Z,42.05
2019-04-11T18:51:45.608Z,42.77
2019-04-11T18:54:16.503Z,42.60
2019-04-11T18:56:47.591Z,42.25
2019-04-11T18:59:18.557Z,42.42
2019-04-11T19:01:50.006Z,43.14
2019-04-11T19:04:31.786Z,43.00
2019-04-11T19:06:54.414Z,42.88
2019-04-11T19:09:25.266Z,43.37
2019-04-11T19:12:00.043Z,42.91
2019-04-11T19:14:30.845Z,43.51
2019-04-11T19:17:02.073Z,43.68
2019-04-11T19:19:34.515Z,43.72
2019-04-11T19:22:06.682Z,44.58
2019-04-11T19:24:42.497Z,44.05
2019-04-11T19:27:58.255Z,44.89
2019-04-11T19:30:31.069Z,44.20
2019-04-11T19:39:06.467Z,45.03
2019-04-11T19:41:48.103Z,45.62
2019-04-11T19:44:21.357Z,44.82
2019-04-11T19:47:58.295Z,44.69
2019-04-11T19:50:30.987Z,44.28
2019-04-11T19:54:17.090Z,45.64
2019-04-11T19:57:04.947Z,45.16
2019-04-11T20:03:10.119Z,46.22
2019-04-11T20:09:11.808Z,45.60
2019-04-11T20:11:44.933Z,45.77
2019-04-11T20:14:18.361Z,45.71
2019-04-11T20:16:52.582Z,45.30
2019-04-11T20:19:27.350Z,46.09
2019-04-11T20:22:02.765Z,46.99
2019-04-11T20:24:54.792Z,46.37
2019-04-11T20:27:39.829Z,47.26
2019-04-11T20:30:53.163Z,47.94
2019-04-11T20:33:27.393Z,47.69
2019-04-11T20:35:58.960Z,47.18
2019-04-11T20:38:31.535Z,48.89
2019-04-11T20:44:37.323Z,48.44
2019-04-11T20:47:40.317Z,46.61
2019-04-11T20:50:14.593Z,46.45
2019-04-11T20:52:47.104Z,46.47
2019-04-11T20:56:24.186Z,47.66
2019-04-11T20:58:54.358Z,47.88
2019-04-11T21:01:28.761Z,48.51
2019-04-11T21:04:06.066Z,46.96
2019-04-11T21:06:41.464Z,46.49
2019-04-11T21:09:19.563Z,47.60
2019-04-11T21:15:06.601Z,46.85
2019-04-11T21:18:30.712Z,49.13
2019-04-11T21:21:12.692Z,48.05
2019-04-11T21:29:14.386Z,47.94
2019-04-11T21:31:56.604Z,47.58
2019-04-11T21:34:37.880Z,48.09
2019-04-11T21:37:13.921Z,48.74
2019-04-11T21:45:26.815Z,48.91
2019-04-11T21:51:03.976Z,50.08
2019-04-11T21:53:36.732Z,50.37
2019-04-11T21:56:11.138Z,50.37
2019-04-11T21:58:49.914Z,50.39
2019-04-11T22:01:21.960Z,50.84
2019-04-11T22:12:07.659Z,50.65
2019-04-11T22:14:41.344Z,51.22
2019-04-11T22:17:15.923Z,51.35
2019-04-11T22:19:50.123Z,51.62
2019-04-11T22:22:39.859Z,51.60
2019-04-11T22:25:18.326Z,51.78
2019-04-11T22:27:51.051Z,52.02
2019-04-11T22:30:26.009Z,52.04
2019-04-11T22:33:24.842Z,52.91
2019-04-11T22:35:59.340Z,53.28
2019-04-11T22:41:57.991Z,53.33
2019-04-11T22:47:12.668Z,53.66
2019-04-11T22:50:17.823Z,53.62
2019-04-11T22:53:12.818Z,53.54
2019-04-11T22:55:41.335Z,54.66
2019-04-11T23:02:00.761Z,54.14
2019-04-11T23:04:54.907Z,53.77
2019-04-11T23:07:29.681Z,54.32
2019-04-11T23:12:46.536Z,54.32
2019-04-11T23:15:22.572Z,54.38
2019-04-11T23:18:35.837Z,54.93
2019-04-11T23:21:08.717Z,54.72
2019-04-11T23:23:49.538Z,55.31
2019-04-11T23:26:22.682Z,55.16
2019-04-11T23:28:56.776Z,54.88
2019-04-11T23:31:29.560Z,55.62
2019-04-11T23:34:01.392Z,55.53
2019-04-11T23:36:32.741Z,55.48
2019-04-11T23:39:05.982Z,56.68
2019-04-11T23:44:20.324Z,57.41
2019-04-11T23:46:51.995Z,57.04
2019-04-11T23:49:25.225Z,56.49
2019-04-11T23:51:56.548Z,56.85
2019-04-11T23:54:29.254Z,56.65
2019-04-11T23:57:01.079Z,56.90
2019-04-11T23:59:32.811Z,56.90
